createdAt,value
2017-02-10T00:06:01.006Z,1015.1
2017-02-10T00:16:13.618Z,1015.1
2017-02-10T00:26:26.284Z,1015
2017-02-10T00:36:38.869Z,1014.9
2017-02-10T00:46:51.407Z,1014.8
2017-02-10T00:57:03.983Z,1014.6
2017-02-10T01:07:16.566Z,1014.7
2017-02-10T01:17:29.149Z,1014.6
2017-02-10T01:27:41.733Z,1014.6
2017-02-10T01:37:54.411Z,1014.6
2017-02-10T01:48:07.085Z,1014.5
2017-02-10T01:58:19.691Z,1014.4
2017-02-10T02:08:32.279Z,1014.3
2017-02-10T02:18:44.831Z,1014.2
2017-02-10T02:28:57.475Z,1014.2
2017-02-10T02:39:10.101Z,1014.1
2017-02-10T02:49:22.671Z,1014.1
2017-02-10T02:59:35.282Z,1013.9
2017-02-10T03:09:47.905Z,1013.7
2017-02-10T03:20:00.520Z,1013.6
2017-02-10T03:30:13.130Z,1013.6
2017-02-10T03:40:25.784Z,1013.7
2017-02-10T03:50:38.457Z,1013.6
2017-02-10T04:00:51.146Z,1013.6
2017-02-10T04:11:03.862Z,1013.6
2017-02-10T04:21:16.540Z,1013.4
2017-02-10T04:31:29.167Z,1013.4
2017-02-10T04:41:41.815Z,1013.5
2017-02-10T04:51:54.381Z,1013.5
2017-02-10T05:02:06.945Z,1013.4
2017-02-10T05:12:19.576Z,1013.3
2017-02-10T05:22:32.208Z,1013.3
2017-02-10T05:32:44.839Z,1013.3
2017-02-10T05:42:57.454Z,1013.4
2017-02-10T05:53:10.067Z,1013.4
2017-02-10T06:03:22.703Z,1013.4
2017-02-10T06:13:35.353Z,1013.5
2017-02-10T06:23:48.000Z,1013.4
2017-02-10T06:34:00.654Z,1013.4
2017-02-10T06:44:13.310Z,1013.4
2017-02-10T06:54:26.029Z,1013.4
2017-02-10T07:04:38.631Z,1013.4
2017-02-10T07:14:51.275Z,1013.4
2017-02-10T07:25:03.967Z,1013.5
2017-02-10T07:35:16.578Z,1013.3
2017-02-10T07:45:29.158Z,1013.4
2017-02-10T07:55:41.716Z,1013.4
2017-02-10T08:05:54.263Z,1013.4
2017-02-10T08:16:06.798Z,1013.3
2017-02-10T08:26:19.304Z,1013.3
2017-02-10T08:36:31.779Z,1013.3
2017-02-10T08:46:44.263Z,1013.2
2017-02-10T08:56:56.739Z,1013.1
2017-02-10T09:07:09.151Z,1013.1
2017-02-10T09:17:21.535Z,1013.3
2017-02-10T09:27:33.862Z,1013.1
2017-02-10T09:37:46.286Z,1013.2
2017-02-10T09:47:58.615Z,1013.1
2017-02-10T09:58:10.937Z,1013.1
2017-02-10T10:08:23.199Z,1013.1
2017-02-10T10:18:35.484Z,1013.1
2017-02-10T10:28:47.853Z,1013
2017-02-10T10:38:59.980Z,1013.1
2017-02-10T10:49:12.254Z,1013
2017-02-10T10:59:24.489Z,1013
2017-02-10T11:09:36.758Z,1012.9
2017-02-10T11:19:49.154Z,1012.8
2017-02-10T11:30:01.508Z,1012.9
2017-02-10T11:40:13.849Z,1012.7
2017-02-10T11:50:26.136Z,1012.6
2017-02-10T12:00:38.284Z,1012.6
2017-02-10T12:10:50.502Z,1012.5
2017-02-10T12:21:02.713Z,1012.5
2017-02-10T12:31:14.860Z,1012.4
2017-02-10T12:41:27.091Z,1012.5
2017-02-10T12:51:39.298Z,1012.5
2017-02-10T13:01:51.489Z,1012.4
2017-02-10T13:12:03.725Z,1012.4
2017-02-10T13:22:15.950Z,1012.3
2017-02-10T13:32:28.283Z,1012.3
2017-02-10T13:42:40.379Z,1012.3
2017-02-10T13:52:52.694Z,1012.2
2017-02-10T14:03:04.978Z,1012.3
2017-02-10T14:13:17.308Z,1012.2
2017-02-10T14:23:29.597Z,1012
2017-02-10T14:33:41.840Z,1011.9
2017-02-10T14:43:54.114Z,1011.9
2017-02-10T14:54:06.406Z,1011.9
2017-02-10T15:04:18.785Z,1011.8
2017-02-10T15:14:31.058Z,1011.8
2017-02-10T15:24:43.343Z,1011.8
2017-02-10T15:34:55.742Z,1011.9
2017-02-10T15:45:08.175Z,1011.9
2017-02-10T15:55:20.549Z,1012
2017-02-10T16:05:32.903Z,1012
2017-02-10T16:15:45.314Z,1012
2017-02-10T16:25:57.759Z,1012
2017-02-10T16:36:10.207Z,1012
2017-02-10T16:46:22.618Z,1012.1
2017-02-10T16:56:34.998Z,1012
2017-02-10T17:06:47.402Z,1012
2017-02-10T17:16:59.804Z,1011.9
2017-02-10T17:27:12.256Z,1011.9
2017-02-10T17:37:24.719Z,1011.9
2017-02-10T17:47:37.120Z,1011.9
2017-02-10T17:57:49.589Z,1012
2017-02-10T18:08:01.998Z,1012
2017-02-10T18:18:14.396Z,1011.9
2017-02-10T18:28:26.810Z,1012
2017-02-10T18:38:39.193Z,1012
2017-02-10T18:48:51.587Z,1012
2017-02-10T18:59:04.035Z,1012
2017-02-10T19:09:16.513Z,1012
2017-02-10T19:19:28.984Z,1012.1
2017-02-10T19:29:41.449Z,1012.1
2017-02-10T19:39:53.853Z,1012.1
2017-02-10T19:50:06.266Z,1012
2017-02-10T20:00:18.700Z,1012.2
2017-02-10T20:10:31.077Z,1012.2
2017-02-10T20:20:43.409Z,1012.2
2017-02-10T20:30:55.759Z,1012.2
2017-02-10T20:41:08.120Z,1012.1
2017-02-10T20:51:20.467Z,1012.1
2017-02-10T21:01:32.875Z,1012.1
2017-02-10T21:11:45.352Z,1012.1
2017-02-10T21:21:57.787Z,1012.2
2017-02-10T21:32:10.170Z,1012
2017-02-10T21:42:22.530Z,1012
2017-02-10T21:52:34.953Z,1012.1
2017-02-10T22:02:47.358Z,1011.9
2017-02-10T22:12:59.741Z,1011.8
2017-02-10T22:23:12.145Z,1012
2017-02-10T22:33:24.565Z,1011.9
2017-02-10T22:43:36.932Z,1012
2017-02-10T22:53:49.252Z,1011.9
2017-02-10T23:04:01.569Z,1011.8
2017-02-10T23:14:13.947Z,1011.9
2017-02-10T23:24:26.295Z,1012
2017-02-10T23:34:38.623Z,1011.9
2017-02-10T23:44:50.912Z,1011.8
2017-02-10T23:55:03.236Z,1011.8
